sensor_id;sensor_type;location;lat;lon;timestamp;temperature;humidity
16867;DHT22;8550;52.596;13.320;2023-07-09T00:00:02;18.90;97.20
16867;DHT22;8550;52.596;13.320;2023-07-09T00:05:07;18.80;98.50
16867;DHT22;8550;52.596;13.320;2023-07-09T00:10:16;18.90;98.00
16867;DHT22;8550;52.596;13.320;2023-07-09T00:15:19;18.80;99.60
16867;DHT22;8550;52.596;13.320;2023-07-09T00:20:21;18.80;98.90
16867;DHT22;8550;52.596;13.320;2023-07-09T00:25:24;18.80;99.90
16867;DHT22;8550;52.596;13.320;2023-07-09T00:30:27;18.60;99.90
16867;DHT22;8550;52.596;13.320;2023-07-09T00:35:29;18.50;99.90
16867;DHT22;8550;52.596;13.320;2023-07-09T00:40:32;18.40;99.90
16867;DHT22;8550;52.596;13.320;2023-07-09T00:45:35;18.50;99.90
16867;DHT22;8550;52.596;13.320;2023-07-09T00:50:41;18.70;99.90
16867;DHT22;8550;52.596;13.320;2023-07-09T00:55:51;18.70;99.90
16867;DHT22;8550;52.596;13.320;2023-07-09T01:01:00;18.70;99.90
16867;DHT22;8550;52.596;13.320;2023-07-09T01:06:04;18.70;99.90
16867;DHT22;8550;52.596;13.320;2023-07-09T01:11:15;18.70;99.90
16867;DHT22;8550;52.596;13.320;2023-07-09T01:16:26;18.60;99.90
16867;DHT22;8550;52.596;13.320;2023-07-09T01:21:31;18.40;99.90
16867;DHT22;8550;52.596;13.320;2023-07-09T01:26:33;18.20;99.90
16867;DHT22;8550;52.596;13.320;2023-07-09T01:31:35;18.00;99.90
16867;DHT22;8550;52.596;13.320;2023-07-09T01:36:39;17.90;99.90
16867;DHT22;8550;52.596;13.320;2023-07-09T01:41:41;17.80;99.90
16867;DHT22;8550;52.596;13.320;2023-07-09T01:46:42;17.80;99.90
16867;DHT22;8550;52.596;13.320;2023-07-09T01:51:47;17.80;99.90
16867;DHT22;8550;52.596;13.320;2023-07-09T01:56:51;17.80;99.90
16867;DHT22;8550;52.596;13.320;2023-07-09T02:01:56;17.60;99.90
16867;DHT22;8550;52.596;13.320;2023-07-09T02:06:59;17.50;99.90
16867;DHT22;8550;52.596;13.320;2023-07-09T02:12:01;17.30;99.90
16867;DHT22;8550;52.596;13.320;2023-07-09T02:17:03;17.20;99.90
16867;DHT22;8550;52.596;13.320;2023-07-09T02:22:07;17.00;99.90
16867;DHT22;8550;52.596;13.320;2023-07-09T02:27:12;16.90;99.90
16867;DHT22;8550;52.596;13.320;2023-07-09T02:32:18;16.70;99.90
16867;DHT22;8550;52.596;13.320;2023-07-09T02:37:23;16.70;99.90
16867;DHT22;8550;52.596;13.320;2023-07-09T02:42:25;16.50;99.90
16867;DHT22;8550;52.596;13.320;2023-07-09T02:47:27;16.60;99.90
16867;DHT22;8550;52.596;13.320;2023-07-09T02:52:30;16.50;99.90
16867;DHT22;8550;52.596;13.320;2023-07-09T02:57:32;16.50;99.90
16867;DHT22;8550;52.596;13.320;2023-07-09T03:02:34;16.50;99.90
16867;DHT22;8550;52.596;13.320;2023-07-09T03:07:37;16.50;99.90
16867;DHT22;8550;52.596;13.320;2023-07-09T03:12:39;16.50;99.90
16867;DHT22;8550;52.596;13.320;2023-07-09T03:17:41;16.50;99.90
16867;DHT22;8550;52.596;13.320;2023-07-09T03:22:45;16.40;99.90
16867;DHT22;8550;52.596;13.320;2023-07-09T03:27:47;16.40;99.90
16867;DHT22;8550;52.596;13.320;2023-07-09T03:32:49;16.40;99.90
16867;DHT22;8550;52.596;13.320;2023-07-09T03:37:52;16.40;99.90
16867;DHT22;8550;52.596;13.320;2023-07-09T03:42:54;16.40;99.90
16867;DHT22;8550;52.596;13.320;2023-07-09T03:47:56;16.40;99.90
16867;DHT22;8550;52.596;13.320;2023-07-09T03:52:59;16.50;99.90
16867;DHT22;8550;52.596;13.320;2023-07-09T03:58:01;16.60;99.90
16867;DHT22;8550;52.596;13.320;2023-07-09T04:03:04;16.70;99.90
16867;DHT22;8550;52.596;13.320;2023-07-09T04:08:10;16.90;99.90
16867;DHT22;8550;52.596;13.320;2023-07-09T04:13:12;17.10;99.90
16867;DHT22;8550;52.596;13.320;2023-07-09T04:18:14;17.20;99.90
16867;DHT22;8550;52.596;13.320;2023-07-09T04:23:18;17.40;99.90
16867;DHT22;8550;52.596;13.320;2023-07-09T04:28:20;17.50;99.90
16867;DHT22;8550;52.596;13.320;2023-07-09T04:33:22;17.60;99.90
16867;DHT22;8550;52.596;13.320;2023-07-09T04:38:26;17.80;99.90
16867;DHT22;8550;52.596;13.320;2023-07-09T04:43:27;18.10;99.90
16867;DHT22;8550;52.596;13.320;2023-07-09T04:48:29;18.30;99.90
16867;DHT22;8550;52.596;13.320;2023-07-09T04:53:33;18.40;99.90
16867;DHT22;8550;52.596;13.320;2023-07-09T04:58:35;18.70;99.90
16867;DHT22;8550;52.596;13.320;2023-07-09T05:03:37;18.80;99.90
16867;DHT22;8550;52.596;13.320;2023-07-09T05:08:41;19.00;99.90
16867;DHT22;8550;52.596;13.320;2023-07-09T05:13:43;19.20;99.90
16867;DHT22;8550;52.596;13.320;2023-07-09T05:18:47;19.40;99.90
16867;DHT22;8550;52.596;13.320;2023-07-09T05:23:50;19.60;99.90
16867;DHT22;8550;52.596;13.320;2023-07-09T05:28:52;19.90;99.90
16867;DHT22;8550;52.596;13.320;2023-07-09T05:33:54;20.20;99.90
16867;DHT22;8550;52.596;13.320;2023-07-09T05:38:57;20.40;99.90
16867;DHT22;8550;52.596;13.320;2023-07-09T05:43:59;20.70;99.90
16867;DHT22;8550;52.596;13.320;2023-07-09T05:49:01;20.90;99.90
16867;DHT22;8550;52.596;13.320;2023-07-09T05:54:04;21.20;99.90
16867;DHT22;8550;52.596;13.320;2023-07-09T05:59:06;21.40;99.90
16867;DHT22;8550;52.596;13.320;2023-07-09T06:04:08;21.60;99.90
16867;DHT22;8550;52.596;13.320;2023-07-09T06:09:15;21.80;99.90
16867;DHT22;8550;52.596;13.320;2023-07-09T06:14:17;22.10;99.90
16867;DHT22;8550;52.596;13.320;2023-07-09T06:19:19;22.20;99.90
16867;DHT22;8550;52.596;13.320;2023-07-09T06:24:23;22.40;99.90
16867;DHT22;8550;52.596;13.320;2023-07-09T06:29:25;22.60;99.80
16867;DHT22;8550;52.596;13.320;2023-07-09T06:34:27;22.90;99.50
16867;DHT22;8550;52.596;13.320;2023-07-09T06:39:31;23.10;98.50
16867;DHT22;8550;52.596;13.320;2023-07-09T06:44:33;23.50;98.40
16867;DHT22;8550;52.596;13.320;2023-07-09T06:49:34;23.60;97.80
16867;DHT22;8550;52.596;13.320;2023-07-09T06:54:38;23.90;97.10
16867;DHT22;8550;52.596;13.320;2023-07-09T06:59:40;24.00;96.30
16867;DHT22;8550;52.596;13.320;2023-07-09T07:04:42;24.30;95.90
16867;DHT22;8550;52.596;13.320;2023-07-09T07:09:45;24.30;95.00
16867;DHT22;8550;52.596;13.320;2023-07-09T07:14:47;24.60;94.90
16867;DHT22;8550;52.596;13.320;2023-07-09T07:19:49;24.90;94.40
16867;DHT22;8550;52.596;13.320;2023-07-09T07:24:53;25.10;94.00
16867;DHT22;8550;52.596;13.320;2023-07-09T07:29:55;25.20;93.40
16867;DHT22;8550;52.596;13.320;2023-07-09T07:34:57;25.40;92.90
16867;DHT22;8550;52.596;13.320;2023-07-09T07:40:00;25.60;92.80
16867;DHT22;8550;52.596;13.320;2023-07-09T07:45:02;25.70;92.40
16867;DHT22;8550;52.596;13.320;2023-07-09T07:50:06;25.80;92.70
16867;DHT22;8550;52.596;13.320;2023-07-09T07:55:10;25.90;91.50
16867;DHT22;8550;52.596;13.320;2023-07-09T08:00:13;26.00;91.60
16867;DHT22;8550;52.596;13.320;2023-07-09T08:05:15;26.10;91.40
16867;DHT22;8550;52.596;13.320;2023-07-09T08:10:18;26.50;91.50
16867;DHT22;8550;52.596;13.320;2023-07-09T08:15:20;26.80;89.80
16867;DHT22;8550;52.596;13.320;2023-07-09T08:20:22;26.90;89.30
16867;DHT22;8550;52.596;13.320;2023-07-09T08:25:25;27.00;89.60
16867;DHT22;8550;52.596;13.320;2023-07-09T08:30:27;27.20;87.70
16867;DHT22;8550;52.596;13.320;2023-07-09T08:35:29;27.20;87.10
16867;DHT22;8550;52.596;13.320;2023-07-09T08:40:38;27.40;85.90
16867;DHT22;8550;52.596;13.320;2023-07-09T08:45:49;27.60;85.00
16867;DHT22;8550;52.596;13.320;2023-07-09T08:50:55;27.70;80.90
16867;DHT22;8550;52.596;13.320;2023-07-09T08:56:00;27.90;81.80
16867;DHT22;8550;52.596;13.320;2023-07-09T09:01:04;28.30;82.50
16867;DHT22;8550;52.596;13.320;2023-07-09T09:06:12;28.40;80.40
16867;DHT22;8550;52.596;13.320;2023-07-09T09:11:20;28.60;80.00
16867;DHT22;8550;52.596;13.320;2023-07-09T09:16:26;28.70;81.20
16867;DHT22;8550;52.596;13.320;2023-07-09T09:21:32;29.00;73.70
16867;DHT22;8550;52.596;13.320;2023-07-09T09:26:37;29.00;76.10
16867;DHT22;8550;52.596;13.320;2023-07-09T09:31:41;29.30;77.90
16867;DHT22;8550;52.596;13.320;2023-07-09T09:36:44;29.60;78.20
16867;DHT22;8550;52.596;13.320;2023-07-09T09:41:47;29.90;74.70
16867;DHT22;8550;52.596;13.320;2023-07-09T09:46:49;29.80;75.40
16867;DHT22;8550;52.596;13.320;2023-07-09T09:51:51;29.90;71.20
16867;DHT22;8550;52.596;13.320;2023-07-09T09:56:58;29.80;71.90
16867;DHT22;8550;52.596;13.320;2023-07-09T10:02:01;30.00;72.20
16867;DHT22;8550;52.596;13.320;2023-07-09T10:07:07;30.10;69.40
16867;DHT22;8550;52.596;13.320;2023-07-09T10:12:15;30.20;64.40
16867;DHT22;8550;52.596;13.320;2023-07-09T10:17:27;30.40;63.80
16867;DHT22;8550;52.596;13.320;2023-07-09T10:22:43;30.50;64.40
16867;DHT22;8550;52.596;13.320;2023-07-09T10:28:03;30.80;63.70
16867;DHT22;8550;52.596;13.320;2023-07-09T10:33:09;31.10;62.80
16867;DHT22;8550;52.596;13.320;2023-07-09T10:38:22;30.80;61.30
16867;DHT22;8550;52.596;13.320;2023-07-09T10:43:35;30.90;62.60
16867;DHT22;8550;52.596;13.320;2023-07-09T10:48:41;31.30;61.30
16867;DHT22;8550;52.596;13.320;2023-07-09T10:53:46;31.50;60.50
16867;DHT22;8550;52.596;13.320;2023-07-09T10:58:55;31.50;58.70
16867;DHT22;8550;52.596;13.320;2023-07-09T11:04:02;31.90;57.60
16867;DHT22;8550;52.596;13.320;2023-07-09T11:09:11;32.30;62.20
16867;DHT22;8550;52.596;13.320;2023-07-09T11:14:23;32.70;57.60
16867;DHT22;8550;52.596;13.320;2023-07-09T11:19:28;34.30;56.20
16867;DHT22;8550;52.596;13.320;2023-07-09T11:24:32;36.10;50.90
16867;DHT22;8550;52.596;13.320;2023-07-09T11:29:46;38.40;46.50
16867;DHT22;8550;52.596;13.320;2023-07-09T11:34:48;39.80;41.30
16867;DHT22;8550;52.596;13.320;2023-07-09T11:39:50;39.00;40.00
16867;DHT22;8550;52.596;13.320;2023-07-09T11:44:57;40.20;37.60
16867;DHT22;8550;52.596;13.320;2023-07-09T11:50:02;41.30;38.30
16867;DHT22;8550;52.596;13.320;2023-07-09T11:55:21;42.00;33.80
16867;DHT22;8550;52.596;13.320;2023-07-09T12:00:26;43.30;34.80
16867;DHT22;8550;52.596;13.320;2023-07-09T12:05:29;45.10;31.90
16867;DHT22;8550;52.596;13.320;2023-07-09T12:10:33;45.60;30.70
16867;DHT22;8550;52.596;13.320;2023-07-09T12:15:39;43.20;30.50
16867;DHT22;8550;52.596;13.320;2023-07-09T12:20:45;41.60;32.40
16867;DHT22;8550;52.596;13.320;2023-07-09T12:25:50;41.90;31.50
16867;DHT22;8550;52.596;13.320;2023-07-09T12:30:54;42.00;30.80
16867;DHT22;8550;52.596;13.320;2023-07-09T12:35:58;41.60;31.20
16867;DHT22;8550;52.596;13.320;2023-07-09T12:41:01;41.30;31.90
16867;DHT22;8550;52.596;13.320;2023-07-09T12:46:05;42.80;30.90
16867;DHT22;8550;52.596;13.320;2023-07-09T12:51:08;43.30;29.00
16867;DHT22;8550;52.596;13.320;2023-07-09T12:56:13;42.70;29.70
16867;DHT22;8550;52.596;13.320;2023-07-09T13:01:17;43.00;30.00
16867;DHT22;8550;52.596;13.320;2023-07-09T13:06:27;44.70;28.70
16867;DHT22;8550;52.596;13.320;2023-07-09T13:11:33;42.60;31.50
16867;DHT22;8550;52.596;13.320;2023-07-09T13:16:40;41.10;29.90
16867;DHT22;8550;52.596;13.320;2023-07-09T13:21:42;40.40;34.20
16867;DHT22;8550;52.596;13.320;2023-07-09T13:26:44;39.10;33.30
16867;DHT22;8550;52.596;13.320;2023-07-09T13:31:49;38.40;34.50
16867;DHT22;8550;52.596;13.320;2023-07-09T13:36:54;38.80;34.80
16867;DHT22;8550;52.596;13.320;2023-07-09T13:42:00;36.60;35.30
16867;DHT22;8550;52.596;13.320;2023-07-09T13:47:04;36.40;37.70
16867;DHT22;8550;52.596;13.320;2023-07-09T13:52:14;35.80;38.80
16867;DHT22;8550;52.596;13.320;2023-07-09T13:57:18;36.20;39.60
16867;DHT22;8550;52.596;13.320;2023-07-09T14:02:25;36.40;37.80
16867;DHT22;8550;52.596;13.320;2023-07-09T14:07:43;35.90;39.20
16867;DHT22;8550;52.596;13.320;2023-07-09T14:12:51;37.30;37.10
16867;DHT22;8550;52.596;13.320;2023-07-09T14:17:55;37.80;35.10
16867;DHT22;8550;52.596;13.320;2023-07-09T14:22:59;38.60;34.30
16867;DHT22;8550;52.596;13.320;2023-07-09T14:28:07;38.60;34.30
16867;DHT22;8550;52.596;13.320;2023-07-09T14:33:14;38.90;32.90
16867;DHT22;8550;52.596;13.320;2023-07-09T14:38:30;39.50;32.20
16867;DHT22;8550;52.596;13.320;2023-07-09T14:43:32;39.20;32.60
16867;DHT22;8550;52.596;13.320;2023-07-09T14:48:48;38.70;34.80
16867;DHT22;8550;52.596;13.320;2023-07-09T14:53:49;39.40;34.40
16867;DHT22;8550;52.596;13.320;2023-07-09T14:58:52;39.30;34.60
16867;DHT22;8550;52.596;13.320;2023-07-09T15:03:56;39.80;33.70
16867;DHT22;8550;52.596;13.320;2023-07-09T15:08:58;38.40;32.90
16867;DHT22;8550;52.596;13.320;2023-07-09T15:14:00;36.80;36.50
16867;DHT22;8550;52.596;13.320;2023-07-09T15:19:09;35.10;40.10
16867;DHT22;8550;52.596;13.320;2023-07-09T15:24:18;34.80;40.50
16867;DHT22;8550;52.596;13.320;2023-07-09T15:29:21;34.00;40.10
16867;DHT22;8550;52.596;13.320;2023-07-09T15:34:25;34.50;39.80
16867;DHT22;8550;52.596;13.320;2023-07-09T15:39:27;33.90;39.70
16867;DHT22;8550;52.596;13.320;2023-07-09T15:44:28;33.80;42.40
16867;DHT22;8550;52.596;13.320;2023-07-09T15:49:32;33.60;41.70
16867;DHT22;8550;52.596;13.320;2023-07-09T15:54:34;32.90;43.00
16867;DHT22;8550;52.596;13.320;2023-07-09T15:59:36;32.70;41.80
16867;DHT22;8550;52.596;13.320;2023-07-09T16:04:42;32.70;41.60
16867;DHT22;8550;52.596;13.320;2023-07-09T16:09:44;33.00;42.50
16867;DHT22;8550;52.596;13.320;2023-07-09T16:14:47;32.70;42.50
16867;DHT22;8550;52.596;13.320;2023-07-09T16:19:51;32.50;42.70
16867;DHT22;8550;52.596;13.320;2023-07-09T16:24:53;32.50;45.00
16867;DHT22;8550;52.596;13.320;2023-07-09T16:29:55;32.70;44.40
16867;DHT22;8550;52.596;13.320;2023-07-09T16:34:58;32.70;43.30
16867;DHT22;8550;52.596;13.320;2023-07-09T16:40:00;32.40;42.10
16867;DHT22;8550;52.596;13.320;2023-07-09T16:45:03;32.40;45.50
16867;DHT22;8550;52.596;13.320;2023-07-09T16:50:11;32.00;43.70
16867;DHT22;8550;52.596;13.320;2023-07-09T16:55:15;31.90;44.20
16867;DHT22;8550;52.596;13.320;2023-07-09T17:00:24;32.00;45.10
16867;DHT22;8550;52.596;13.320;2023-07-09T17:05:27;32.20;44.10
16867;DHT22;8550;52.596;13.320;2023-07-09T17:10:30;32.10;45.00
16867;DHT22;8550;52.596;13.320;2023-07-09T17:15:33;32.10;45.40
16867;DHT22;8550;52.596;13.320;2023-07-09T17:20:39;32.00;45.80
16867;DHT22;8550;52.596;13.320;2023-07-09T17:25:41;32.20;45.40
16867;DHT22;8550;52.596;13.320;2023-07-09T17:30:44;31.80;46.20
16867;DHT22;8550;52.596;13.320;2023-07-09T17:35:49;31.60;47.20
16867;DHT22;8550;52.596;13.320;2023-07-09T17:40:52;31.30;47.30
16867;DHT22;8550;52.596;13.320;2023-07-09T17:45:55;31.00;47.90
16867;DHT22;8550;52.596;13.320;2023-07-09T17:50:58;30.90;48.00
16867;DHT22;8550;52.596;13.320;2023-07-09T17:56:01;30.80;49.40
16867;DHT22;8550;52.596;13.320;2023-07-09T18:01:04;30.80;48.20
16867;DHT22;8550;52.596;13.320;2023-07-09T18:06:14;30.40;48.70
16867;DHT22;8550;52.596;13.320;2023-07-09T18:11:28;30.20;48.20
16867;DHT22;8550;52.596;13.320;2023-07-09T18:16:31;30.00;49.20
16867;DHT22;8550;52.596;13.320;2023-07-09T18:21:35;29.70;49.20
16867;DHT22;8550;52.596;13.320;2023-07-09T18:26:37;29.50;50.20
16867;DHT22;8550;52.596;13.320;2023-07-09T18:31:39;29.20;49.60
16867;DHT22;8550;52.596;13.320;2023-07-09T18:36:42;28.90;50.50
16867;DHT22;8550;52.596;13.320;2023-07-09T18:41:44;28.60;51.30
16867;DHT22;8550;52.596;13.320;2023-07-09T18:46:47;28.40;51.70
16867;DHT22;8550;52.596;13.320;2023-07-09T18:51:50;28.20;51.30
16867;DHT22;8550;52.596;13.320;2023-07-09T18:56:52;28.00;51.70
16867;DHT22;8550;52.596;13.320;2023-07-09T19:01:54;27.80;52.00
16867;DHT22;8550;52.596;13.320;2023-07-09T19:06:57;27.60;52.70
16867;DHT22;8550;52.596;13.320;2023-07-09T19:11:59;27.30;52.60
16867;DHT22;8550;52.596;13.320;2023-07-09T19:17:05;27.20;54.10
16867;DHT22;8550;52.596;13.320;2023-07-09T19:22:11;26.90;54.70
16867;DHT22;8550;52.596;13.320;2023-07-09T19:27:13;26.80;55.00
16867;DHT22;8550;52.596;13.320;2023-07-09T19:32:26;26.60;54.90
16867;DHT22;8550;52.596;13.320;2023-07-09T19:37:29;26.50;55.50
16867;DHT22;8550;52.596;13.320;2023-07-09T19:42:31;26.20;56.20
16867;DHT22;8550;52.596;13.320;2023-07-09T19:47:34;25.90;56.40
16867;DHT22;8550;52.596;13.320;2023-07-09T19:52:38;25.70;57.40
16867;DHT22;8550;52.596;13.320;2023-07-09T19:57:40;25.60;57.30
16867;DHT22;8550;52.596;13.320;2023-07-09T20:02:43;25.60;57.40
16867;DHT22;8550;52.596;13.320;2023-07-09T20:07:46;25.50;57.10
16867;DHT22;8550;52.596;13.320;2023-07-09T20:12:50;25.40;56.80
16867;DHT22;8550;52.596;13.320;2023-07-09T20:17:55;25.30;57.60
16867;DHT22;8550;52.596;13.320;2023-07-09T20:22:59;25.30;55.20
16867;DHT22;8550;52.596;13.320;2023-07-09T20:28:04;25.40;56.20
16867;DHT22;8550;52.596;13.320;2023-07-09T20:33:10;25.30;55.40
16867;DHT22;8550;52.596;13.320;2023-07-09T20:38:16;25.30;56.90
16867;DHT22;8550;52.596;13.320;2023-07-09T20:43:22;25.10;57.70
16867;DHT22;8550;52.596;13.320;2023-07-09T20:48:24;25.00;58.30
16867;DHT22;8550;52.596;13.320;2023-07-09T20:53:29;25.00;58.40
16867;DHT22;8550;52.596;13.320;2023-07-09T20:58:31;24.80;58.60
16867;DHT22;8550;52.596;13.320;2023-07-09T21:03:33;24.80;59.00
16867;DHT22;8550;52.596;13.320;2023-07-09T21:08:36;24.60;59.60
16867;DHT22;8550;52.596;13.320;2023-07-09T21:13:38;24.50;58.80
16867;DHT22;8550;52.596;13.320;2023-07-09T21:18:41;24.40;58.80
16867;DHT22;8550;52.596;13.320;2023-07-09T21:23:44;24.40;59.90
16867;DHT22;8550;52.596;13.320;2023-07-09T21:28:47;24.40;60.70
16867;DHT22;8550;52.596;13.320;2023-07-09T21:33:49;24.40;61.90
16867;DHT22;8550;52.596;13.320;2023-07-09T21:38:52;24.30;60.80
16867;DHT22;8550;52.596;13.320;2023-07-09T21:43:54;24.20;59.80
16867;DHT22;8550;52.596;13.320;2023-07-09T21:48:56;24.20;61.80
16867;DHT22;8550;52.596;13.320;2023-07-09T21:54:00;24.10;62.20
16867;DHT22;8550;52.596;13.320;2023-07-09T21:59:02;24.20;62.40
16867;DHT22;8550;52.596;13.320;2023-07-09T22:04:13;24.20;63.00
16867;DHT22;8550;52.596;13.320;2023-07-09T22:09:17;24.20;61.70
16867;DHT22;8550;52.596;13.320;2023-07-09T22:14:21;24.10;61.90
16867;DHT22;8550;52.596;13.320;2023-07-09T22:19:23;24.00;62.60
16867;DHT22;8550;52.596;13.320;2023-07-09T22:24:27;24.00;60.40
16867;DHT22;8550;52.596;13.320;2023-07-09T22:29:29;24.00;60.90
16867;DHT22;8550;52.596;13.320;2023-07-09T22:34:31;23.90;61.50
16867;DHT22;8550;52.596;13.320;2023-07-09T22:39:34;23.80;63.80
16867;DHT22;8550;52.596;13.320;2023-07-09T22:44:36;23.60;63.10
16867;DHT22;8550;52.596;13.320;2023-07-09T22:49:38;23.60;61.90
16867;DHT22;8550;52.596;13.320;2023-07-09T22:54:41;23.50;64.20
16867;DHT22;8550;52.596;13.320;2023-07-09T22:59:44;23.40;65.90
16867;DHT22;8550;52.596;13.320;2023-07-09T23:04:46;23.30;66.30
16867;DHT22;8550;52.596;13.320;2023-07-09T23:09:51;23.10;66.30
16867;DHT22;8550;52.596;13.320;2023-07-09T23:14:53;23.10;65.70
16867;DHT22;8550;52.596;13.320;2023-07-09T23:19:55;23.10;67.60
16867;DHT22;8550;52.596;13.320;2023-07-09T23:24:59;23.10;67.20
16867;DHT22;8550;52.596;13.320;2023-07-09T23:30:01;23.00;68.20
16867;DHT22;8550;52.596;13.320;2023-07-09T23:35:14;23.00;68.70
16867;DHT22;8550;52.596;13.320;2023-07-09T23:40:21;22.90;68.70
16867;DHT22;8550;52.596;13.320;2023-07-09T23:45:24;22.80;69.30
16867;DHT22;8550;52.596;13.320;2023-07-09T23:50:26;22.70;70.90
16867;DHT22;8550;52.596;13.320;2023-07-09T23:55:29;22.60;72.10
